Villa Angelina, Puerto Rico
Current Conditions -  °F | °C
As of 9:34 AM on Sunday 23 Nov 2014 (Local Time) from TJNR Reporting Station
Broken Clouds Broken Clouds  
Wind Chill: 84°   Ceiling: 2600
Heat Index: 91°   Visibility: 10mi
Dew Point: 74°   Wind: 13mph
Humidity: 72%   Direction: 90°E
Pressure: 30.08"   Gusts: 23mph
Location:  18.3744°N, 65.7168°W
Report Text: TJNR 231334Z AUTO 09011G20KT 10SM BKN026 BKN041 29/23 A3008 RMK AO2 T02890233 $
Loading
Personal Weather Stations






























Interactive Weather Map New forecast layout! Learn more

10-Day Weather Forecast

Advertisements
Track Severe Weather on mobile